world map with VCA marked

VCA - Airport

This information may not be accurate or current and is not valid for navigation or flight planning. No warranty of fitness for any purpose is made or implied.

flag of Vietnam

Donate via PayPal

Additional information is available on the NEW Great Circle Mapper

Location
City:  Cn Tho, Vietnam
Name:International (Tr Nc International)
ICAO / IATA:VVCT / VCA

Details
Type:Airport (Aerodrome, Airfield)
Latitude:1005'06"N (10.085119)
Longitude:10542'43"E (105.711922)
Datum:WGS 1984
Elevation:9 ft (3 m)
Runways:1
Longest:7886 × 100 ft (2404 × 30.5 m)

Time
Timezone:UTC+7 (DST+9)
Local Time:

Weather
METAR:VVCT  041400Z 11006KT 080V140 9999 FEW013 26/22 Q1014 NOSIG
TAF:VVCT  041100Z 0412/0512 11007KT 9999 SCT015

Related Locations
Nearby:
Farthest:SPDC: 12430 mi / 20005 km
Chicosa [Chicosa Airport], UCA, PE

Find:

   beyond  
but within

Other Information
Maps:
Sources:

  


 


Great Circle Mapper   Great Circle Mapper
Great Circle Mapper FAQ   Great Circle Mapper FAQ
  Karl's Home Page
KLS   KLS Home
   GC on Facebook
Airlines of the World   Airlines of the World
Donate via PayPal


Copyright © 2004-2020, Karl L. Swartz. All rights reserved.
All trademarks mentioned herein belong to their respective owners.

Please see credits for attribution and copyright information.

Karl Swartz <karl@kls2.com>
  Powered by FreeBSD
Valid HTML 4.01!
Labeled with ICRA
hCard Microformat
Geo Microformat